Pagrindinis puslapis
METAR-TAF:

METAR-TAF

Oro uostai :

Glosteris, Anglija

platuma: 51-54N, ilguma: 002-10W, Aukštis: 29 m

Dabartinis oras

Ataskaita buvo paskelbta 1 valandą ir 8 minutes, ne 19:20 UTC
Ramus vėjas
Temperatūra 1°C
Drėgmė 100%
Slėgis 1046 hPa
Matomumas: 3000 m
Mažai debesys ne aukštis 100 ft
rūkana

METAR: EGBJ 201920Z 00000KT 3000 BR FEW001 01/01 Q1046

Laikas: 20:28 (20:28 UTC)

Prognozė

Ataskaita buvo paskelbta 3 valandos ir 25 minutes, ne 17:03 UTC
Prognozė galioja nuo 20 metu 18 UTC su 20 metu 20 UTC
Vėjas 2 kt nuo kintamojo kryptimis
Matomumas 10 km arba daugiau
Mažai debesys ne aukštis 1000 ft
Tapsmas
nuo 20 metu 18 UTC su 20 metu 20 UTC
Matomumas: 6000 m
Laikinai
nuo 20 metu 18 UTC su 20 metu 20 UTC
Matomumas: 4000 m
rūkana
Tikimybė 30% :
Laikinai
nuo 20 metu 18 UTC su 20 metu 20 UTC
Matomumas: 0300 m
Su prošvaistėmis ne aukštis 100 ft
rūkas

TAF: EGBJ 201703Z 2018/2020 VRB02KT 9999 FEW010 BECMG 2018/2020 6000 TEMPO 2018/2020 4000 BR PROB30 TEMPO 2018/2020 0300 FG BKN001

Orai ataskaitas ir orų prognozės (METAR, TAF).

turimą stotys yra geltonos ir raudonos taškus žemėlapyje.

Perkelti pele per norėdami pamatyti stoties vardą.

Tada spustelėkite, norėdami matyti oro stebėjimo ir prognozės.

Norėdami pakeisti žemėlapį: spustelėkite ant žalios mygtukų su juodo kryžiaus žemyn,; žalią mygtuką su brūkšneliu, jei norite nutolinti; arba žalių rodyklių gretimoms žemėlapius.


METAR-TAF: